createdAt,value
2018-12-30T11:09:34.583Z,9.31
2018-12-30T11:17:12.006Z,9.42
2018-12-30T11:22:14.755Z,9.12
2018-12-30T11:27:17.404Z,9.37
2018-12-30T11:32:20.491Z,9.39
2018-12-30T11:37:23.522Z,9.89
2018-12-30T11:42:26.206Z,9.57
2018-12-30T11:47:28.805Z,10.16
2018-12-30T11:52:31.699Z,10.07
2018-12-30T11:57:34.671Z,9.95
2018-12-30T12:02:37.533Z,10.10
2018-12-30T12:07:40.221Z,10.40
2018-12-30T12:12:48.826Z,10.49
2018-12-30T12:17:47.005Z,10.27
2018-12-30T12:22:49.967Z,10.13
2018-12-30T12:27:52.998Z,10.19
2018-12-30T12:32:55.956Z,9.79
2018-12-30T12:37:58.847Z,9.65
2018-12-30T12:43:01.135Z,9.56
2018-12-30T12:48:04.147Z,9.41
2018-12-30T12:53:06.919Z,9.62
2018-12-30T12:58:09.831Z,9.89
2018-12-30T13:03:12.334Z,9.84
2018-12-30T13:08:14.412Z,9.78
2018-12-30T13:13:17.407Z,9.81
2018-12-30T13:18:20.189Z,9.78
2018-12-30T13:23:22.927Z,10.26
2018-12-30T13:28:25.416Z,10.05
2018-12-30T13:33:28.483Z,9.82
2018-12-30T13:38:31.432Z,9.98
2018-12-30T13:43:33.813Z,10.04
2018-12-30T13:48:36.624Z,9.60
2018-12-30T13:53:39.619Z,9.31
2018-12-30T13:58:42.330Z,8.84
2018-12-30T14:03:45.134Z,8.52
2018-12-30T14:08:47.857Z,8.45
2018-12-30T14:13:50.622Z,8.29
2018-12-30T14:18:52.719Z,8.32
2018-12-30T14:23:55.863Z,8.13
2018-12-30T14:28:58.716Z,8.08
2018-12-30T14:34:01.828Z,7.97
2018-12-30T14:39:06.510Z,7.89
2018-12-30T14:44:08.957Z,7.89
2018-12-30T14:49:11.657Z,7.93
2018-12-30T14:54:14.828Z,7.78
2018-12-30T14:59:17.927Z,7.72
2018-12-30T15:04:22.376Z,7.76
2018-12-30T15:09:25.328Z,7.53
2018-12-30T15:14:27.700Z,7.58
2018-12-30T15:19:30.823Z,7.45
2018-12-30T15:24:33.987Z,7.48
2018-12-30T15:29:36.935Z,7.45
2018-12-30T15:34:39.713Z,7.56
2018-12-30T15:39:42.746Z,7.33
2018-12-30T15:44:44.901Z,7.38
2018-12-30T15:49:47.916Z,7.30
2018-12-30T15:55:22.808Z,7.24
2018-12-30T16:00:52.969Z,7.21
2018-12-30T16:06:07.069Z,7.10
2018-12-30T16:11:10.107Z,7.23
2018-12-30T16:16:13.075Z,7.20
2018-12-30T16:21:15.952Z,7.28
2018-12-30T16:26:19.070Z,7.23
2018-12-30T16:31:28.084Z,7.17
2018-12-30T16:36:26.326Z,7.12
2018-12-30T16:41:29.034Z,7.05
2018-12-30T16:46:32.031Z,6.96
2018-12-30T16:51:34.733Z,7.00
2018-12-30T16:56:37.680Z,6.92
2018-12-30T17:01:40.407Z,6.91
2018-12-30T17:06:43.177Z,6.85
2018-12-30T17:11:45.833Z,6.87
2018-12-30T17:16:48.849Z,6.84
2018-12-30T17:21:51.150Z,6.82
2018-12-30T17:26:54.448Z,6.78
2018-12-30T17:31:57.518Z,6.64
2018-12-30T17:37:00.231Z,6.60
2018-12-30T17:42:02.907Z,6.56
2018-12-30T17:47:05.873Z,6.51
2018-12-30T17:52:08.860Z,6.42
2018-12-30T17:57:11.747Z,6.28
2018-12-30T18:02:16.359Z,6.24
2018-12-30T18:07:20.963Z,6.37
2018-12-30T18:12:24.935Z,6.21
2018-12-30T18:17:29.000Z,6.61
2018-12-30T18:22:34.056Z,6.31
2018-12-30T18:27:38.370Z,6.30
2018-12-30T18:32:41.199Z,6.31
2018-12-30T18:37:43.390Z,6.24
2018-12-30T18:42:45.791Z,6.24
2018-12-30T18:47:48.430Z,6.29
2018-12-30T18:52:51.527Z,6.28
2018-12-30T18:57:54.693Z,6.28
2018-12-30T19:02:57.415Z,6.26
2018-12-30T19:07:59.808Z,6.24
2018-12-30T19:13:02.489Z,6.35
2018-12-30T19:18:07.211Z,6.33
2018-12-30T19:23:09.720Z,6.32
2018-12-30T19:28:13.853Z,6.31
2018-12-30T19:33:16.763Z,6.05
2018-12-30T19:38:19.179Z,6.03
2018-12-30T19:43:22.271Z,5.96
2018-12-30T19:48:24.759Z,5.90
2018-12-30T19:53:27.956Z,6.14
2018-12-30T19:58:31.179Z,6.15
2018-12-30T20:03:34.586Z,6.14
2018-12-30T20:08:37.292Z,6.14
2018-12-30T20:13:40.184Z,6.06
2018-12-30T20:18:42.885Z,5.98
2018-12-30T20:23:46.421Z,5.96
2018-12-30T20:28:50.194Z,6.00
2018-12-30T20:33:53.467Z,5.97
2018-12-30T20:38:56.502Z,5.85
2018-12-30T20:43:59.947Z,5.90
2018-12-30T20:49:03.246Z,5.96
2018-12-30T20:54:06.480Z,5.93
2018-12-30T20:59:09.864Z,5.78
2018-12-30T21:04:13.043Z,5.90
2018-12-30T21:09:17.228Z,5.95
2018-12-30T21:14:20.734Z,5.83
2018-12-30T21:19:23.463Z,5.84
2018-12-30T21:24:27.927Z,6.04
2018-12-30T21:29:30.686Z,5.92
2018-12-30T21:34:33.183Z,6.05
2018-12-30T21:39:35.992Z,5.99
2018-12-30T21:44:38.530Z,5.94
2018-12-30T21:49:41.893Z,5.70
2018-12-30T21:54:44.540Z,5.52
2018-12-30T21:59:47.190Z,5.77
2018-12-30T22:04:50.170Z,5.95
2018-12-30T22:09:52.866Z,6.00
2018-12-30T22:14:55.699Z,6.07
2018-12-30T22:19:57.467Z,6.11
2018-12-30T22:25:00.577Z,6.17
2018-12-30T22:30:04.470Z,5.66
2018-12-30T22:35:07.624Z,5.77
2018-12-30T22:40:10.579Z,5.83
2018-12-30T22:45:13.621Z,6.06
2018-12-30T22:50:16.094Z,6.16
2018-12-30T22:55:19.127Z,6.22
2018-12-30T23:00:38.919Z,6.22
2018-12-30T23:05:41.872Z,6.22
2018-12-30T23:10:46.261Z,6.17
2018-12-30T23:15:49.141Z,6.20
2018-12-30T23:20:52.147Z,6.24
2018-12-30T23:25:55.167Z,6.27
2018-12-30T23:30:57.563Z,6.26
2018-12-30T23:36:00.045Z,6.28
2018-12-30T23:41:02.435Z,6.33
2018-12-30T23:46:05.225Z,6.34
2018-12-30T23:51:08.046Z,6.33
2018-12-30T23:56:11.147Z,6.38
